createdAt,value
2019-01-28T00:00:11.109Z,1.40
2019-01-28T00:02:41.639Z,1.90
2019-01-28T00:05:12.151Z,1.30
2019-01-28T00:07:42.761Z,1.20
2019-01-28T00:10:12.814Z,1.10
2019-01-28T00:16:34.277Z,2.00
2019-01-28T00:19:04.267Z,1.60
2019-01-28T00:21:34.705Z,1.70
2019-01-28T00:24:04.880Z,1.55
2019-01-28T00:26:34.786Z,1.37
2019-01-28T00:29:05.175Z,1.90
2019-01-28T00:31:35.384Z,1.65
2019-01-28T00:34:05.518Z,1.43
2019-01-28T00:36:35.781Z,2.00
2019-01-28T00:39:09.519Z,1.50
2019-01-28T00:41:39.526Z,2.00
2019-01-28T00:44:09.773Z,1.37
2019-01-28T00:46:39.665Z,1.55
2019-01-28T00:49:09.560Z,1.20
2019-01-28T00:51:39.935Z,1.55
2019-01-28T00:54:09.896Z,1.70
2019-01-28T00:56:40.368Z,1.60
2019-01-28T00:59:10.916Z,1.35
2019-01-28T01:01:41.212Z,2.00
2019-01-28T01:04:11.329Z,1.53
2019-01-28T01:06:41.652Z,1.67
2019-01-28T01:09:11.965Z,1.62
2019-01-28T01:11:42.259Z,1.80
2019-01-28T01:14:12.160Z,2.15
2019-01-28T01:16:42.069Z,1.60
2019-01-28T01:19:12.217Z,2.20
2019-01-28T01:21:42.361Z,1.77
2019-01-28T01:24:12.322Z,2.00
2019-01-28T01:26:42.779Z,1.75
2019-01-28T01:29:13.847Z,1.67
2019-01-28T01:35:36.151Z,1.72
2019-01-28T01:38:06.885Z,1.30
2019-01-28T01:55:11.523Z,2.10
2019-01-28T01:57:41.757Z,2.00
2019-01-28T02:00:15.559Z,1.85
2019-01-28T02:02:45.601Z,1.32
2019-01-28T02:05:16.359Z,1.82
2019-01-28T02:07:46.716Z,1.40
2019-01-28T02:10:17.846Z,1.95
2019-01-28T02:12:48.142Z,2.02
2019-01-28T02:15:21.432Z,1.70
2019-01-28T02:17:51.397Z,1.67
2019-01-28T02:20:21.303Z,1.45
2019-01-28T02:22:51.527Z,1.25
2019-01-28T02:25:22.114Z,1.70
2019-01-28T02:27:52.155Z,1.45
2019-01-28T02:30:22.567Z,1.50
2019-01-28T02:32:52.789Z,1.22
2019-01-28T02:35:22.771Z,1.65
2019-01-28T02:37:52.674Z,1.27
2019-01-28T02:40:22.669Z,1.37
2019-01-28T02:42:53.133Z,1.42
2019-01-28T02:45:23.130Z,1.72
2019-01-28T02:47:53.118Z,1.15
2019-01-28T02:50:23.101Z,1.00
2019-01-28T02:52:53.007Z,0.80
2019-01-28T02:55:23.234Z,1.20
2019-01-28T02:57:53.174Z,0.90
2019-01-28T03:00:24.826Z,0.75
2019-01-28T03:02:56.209Z,1.00
2019-01-28T03:05:27.414Z,1.12
2019-01-28T03:07:58.128Z,1.15
2019-01-28T03:10:28.999Z,1.20
2019-01-28T03:13:00.073Z,1.00
2019-01-28T03:15:30.507Z,1.00
2019-01-28T03:18:00.663Z,1.20
2019-01-28T03:20:34.134Z,1.10
2019-01-28T03:23:04.398Z,1.50
2019-01-28T03:25:34.561Z,1.32
2019-01-28T03:28:04.525Z,2.05
2019-01-28T03:30:35.080Z,1.52
2019-01-28T03:33:05.432Z,1.65
2019-01-28T03:35:35.358Z,1.72
2019-01-28T03:38:05.841Z,2.00
2019-01-28T03:40:36.248Z,1.80
2019-01-28T03:43:06.311Z,2.00
2019-01-28T03:45:36.477Z,1.77
2019-01-28T03:48:06.906Z,2.45
2019-01-28T03:50:37.106Z,2.33
2019-01-28T03:53:07.274Z,2.12
2019-01-28T03:55:37.258Z,1.80
2019-01-28T03:58:07.587Z,2.12
2019-01-28T04:00:37.550Z,2.05
2019-01-28T04:03:07.611Z,1.70
2019-01-28T04:05:37.617Z,2.10
2019-01-28T04:08:07.883Z,2.02
2019-01-28T04:10:37.858Z,1.98
2019-01-28T04:13:08.106Z,1.57
2019-01-28T04:15:38.344Z,2.05
2019-01-28T04:18:08.640Z,2.17
2019-01-28T04:20:38.841Z,2.20
2019-01-28T04:23:08.772Z,1.85
2019-01-28T04:25:38.691Z,1.62
2019-01-28T04:28:08.782Z,1.95
2019-01-28T04:30:39.347Z,1.37
2019-01-28T04:33:09.266Z,1.95
2019-01-28T04:35:39.189Z,1.95
2019-01-28T04:38:09.226Z,1.90
2019-01-28T04:40:39.274Z,2.02
2019-01-28T04:43:09.429Z,1.85
2019-01-28T04:45:39.317Z,1.85
2019-01-28T04:48:09.349Z,1.90
2019-01-28T04:50:39.835Z,1.10
2019-01-28T04:53:10.070Z,1.50
2019-01-28T04:55:39.959Z,2.47
2019-01-28T04:58:10.012Z,1.90
2019-01-28T05:00:39.991Z,1.50
2019-01-28T05:03:10.253Z,1.80
2019-01-28T05:05:40.563Z,1.65
2019-01-28T05:08:10.599Z,1.47
2019-01-28T05:10:40.780Z,1.80
2019-01-28T05:13:10.856Z,1.40
2019-01-28T05:15:40.843Z,1.95
2019-01-28T05:18:11.468Z,1.77
2019-01-28T05:20:41.915Z,1.30
2019-01-28T05:23:12.373Z,1.60
2019-01-28T05:25:42.339Z,2.10
2019-01-28T05:28:12.557Z,1.30
2019-01-28T05:30:42.827Z,1.40
2019-01-28T05:33:12.977Z,1.70
2019-01-28T05:35:43.263Z,1.50
2019-01-28T05:38:13.922Z,1.10
2019-01-28T05:40:43.877Z,2.30
2019-01-28T05:43:14.280Z,2.10
2019-01-28T05:45:44.488Z,2.70
2019-01-28T05:48:14.717Z,3.15
2019-01-28T05:50:44.839Z,2.50
2019-01-28T05:53:15.539Z,2.35
2019-01-28T05:55:45.504Z,1.55
2019-01-28T05:58:15.426Z,4.03
2019-01-28T06:00:47.103Z,3.33
2019-01-28T06:03:17.074Z,3.05
2019-01-28T06:05:47.158Z,1.80
2019-01-28T06:08:17.306Z,1.42
2019-01-28T06:10:51.286Z,1.30
2019-01-28T06:13:21.252Z,1.10
2019-01-28T06:15:51.301Z,1.05
2019-01-28T06:18:21.356Z,0.90
2019-01-28T06:20:51.926Z,1.00
2019-01-28T06:23:21.910Z,1.40
2019-01-28T06:25:51.976Z,0.98
2019-01-28T06:28:22.627Z,0.90
2019-01-28T06:30:52.778Z,1.00
2019-01-28T06:33:22.825Z,0.90
2019-01-28T06:35:52.779Z,1.00
2019-01-28T06:38:25.322Z,1.00
2019-01-28T06:40:55.654Z,0.80
2019-01-28T06:43:25.872Z,1.17
2019-01-28T06:45:56.767Z,0.97
2019-01-28T06:48:26.855Z,0.93
2019-01-28T06:50:56.938Z,1.00
2019-01-28T06:53:27.422Z,1.17
2019-01-28T06:55:57.493Z,1.10
2019-01-28T06:58:27.676Z,1.20
2019-01-28T07:00:57.934Z,1.00
2019-01-28T07:03:28.325Z,1.10
2019-01-28T07:05:58.874Z,1.60
2019-01-28T07:08:28.746Z,1.27
2019-01-28T07:10:58.722Z,1.25
2019-01-28T07:13:29.209Z,1.05
2019-01-28T07:16:01.015Z,1.17
2019-01-28T07:18:31.095Z,0.98
2019-01-28T07:21:01.259Z,1.00
2019-01-28T07:23:31.566Z,1.23
2019-01-28T07:26:02.032Z,1.10
2019-01-28T07:28:31.940Z,1.10
2019-01-28T07:31:02.543Z,1.10
2019-01-28T07:44:54.075Z,1.33
2019-01-28T07:47:24.527Z,2.15
2019-01-28T08:09:13.668Z,1.85
2019-01-28T08:11:43.807Z,1.63
2019-01-28T08:14:14.272Z,1.57
2019-01-28T08:16:44.179Z,1.67
2019-01-28T08:19:14.857Z,1.00
2019-01-28T08:21:44.759Z,1.00
2019-01-28T08:24:14.678Z,1.20
2019-01-28T08:26:44.852Z,1.00
2019-01-28T08:29:15.169Z,0.93
2019-01-28T08:31:45.988Z,1.37
2019-01-28T08:34:22.286Z,1.70
2019-01-28T08:36:52.158Z,1.20
2019-01-28T08:39:22.335Z,1.10
2019-01-28T08:41:52.265Z,1.80
2019-01-28T08:44:22.796Z,1.13
2019-01-28T08:46:53.754Z,1.13
2019-01-28T08:49:24.225Z,1.20
2019-01-28T08:51:54.371Z,1.33
2019-01-28T08:54:24.282Z,1.20
2019-01-28T08:56:54.274Z,1.33
2019-01-28T08:59:24.180Z,0.90
2019-01-28T09:01:54.138Z,1.97
2019-01-28T09:04:24.118Z,1.50
2019-01-28T09:06:54.698Z,1.60
2019-01-28T09:09:24.618Z,0.90
2019-01-28T09:11:54.616Z,1.17
2019-01-28T09:14:24.770Z,0.80
2019-01-28T09:16:54.850Z,1.53
2019-01-28T09:19:25.034Z,1.00
2019-01-28T09:21:55.094Z,1.27
2019-01-28T09:24:25.650Z,1.43
2019-01-28T09:26:55.572Z,1.00
2019-01-28T09:29:25.956Z,0.97
2019-01-28T09:31:56.203Z,0.83
2019-01-28T09:45:56.071Z,1.20
2019-01-28T09:48:33.928Z,1.00
2019-01-28T09:50:57.959Z,1.47
2019-01-28T09:53:29.449Z,1.20
2019-01-28T10:09:44.861Z,1.10
2019-01-28T10:12:15.079Z,1.30
2019-01-28T10:14:45.233Z,2.57
2019-01-28T10:17:15.167Z,1.47
2019-01-28T10:19:45.302Z,1.40
2019-01-28T10:22:15.530Z,0.90
2019-01-28T10:24:45.719Z,1.70
2019-01-28T10:27:15.908Z,1.40
2019-01-28T10:29:45.798Z,1.30
2019-01-28T10:32:15.691Z,1.23
2019-01-28T10:34:45.601Z,1.30
2019-01-28T10:37:15.561Z,1.40
2019-01-28T10:39:45.956Z,1.20
2019-01-28T10:42:15.952Z,1.70
2019-01-28T10:44:45.867Z,1.20
2019-01-28T10:47:15.939Z,1.13
2019-01-28T10:49:45.824Z,1.70
2019-01-28T10:52:16.533Z,2.33
2019-01-28T10:54:46.705Z,0.80
2019-01-28T10:57:16.581Z,1.30
2019-01-28T10:59:47.026Z,1.87
2019-01-28T11:02:17.377Z,1.63
2019-01-28T11:04:47.467Z,1.50
2019-01-28T11:07:17.429Z,1.60
2019-01-28T11:09:47.693Z,1.70
2019-01-28T11:12:18.250Z,0.97
2019-01-28T11:14:48.420Z,1.33
2019-01-28T11:17:19.058Z,1.80
2019-01-28T11:19:50.107Z,1.17
2019-01-28T11:22:20.785Z,1.17
2019-01-28T11:24:51.033Z,1.13
2019-01-28T11:27:21.046Z,1.50
2019-01-28T11:29:51.101Z,1.53
2019-01-28T11:32:21.222Z,4.63
2019-01-28T11:34:54.027Z,4.40
2019-01-28T11:37:25.480Z,4.80
2019-01-28T11:39:55.944Z,7.30
2019-01-28T11:42:26.142Z,1.10
2019-01-28T11:44:56.113Z,1.53
2019-01-28T12:09:12.207Z,2.30
2019-01-28T12:15:27.243Z,1.27
2019-01-28T12:17:57.260Z,1.93
2019-01-28T12:20:27.581Z,1.97
2019-01-28T12:22:57.781Z,1.23
2019-01-28T12:25:27.819Z,1.43
2019-01-28T12:27:57.768Z,2.00
2019-01-28T12:30:29.664Z,1.63
2019-01-28T12:32:59.869Z,1.80
2019-01-28T12:35:29.858Z,1.67
2019-01-28T12:38:00.271Z,1.03
2019-01-28T12:40:31.266Z,1.33
2019-01-28T12:43:01.172Z,1.10
2019-01-28T12:45:31.547Z,2.50
2019-01-28T12:48:01.706Z,2.30
2019-01-28T12:50:32.616Z,1.00
2019-01-28T12:53:02.751Z,1.50
2019-01-28T12:55:34.052Z,1.57
2019-01-28T12:58:04.208Z,1.40
2019-01-28T13:00:42.386Z,1.60
2019-01-28T13:03:13.482Z,2.60
2019-01-28T13:05:43.816Z,1.40
2019-01-28T13:08:14.323Z,1.20
2019-01-28T13:10:45.229Z,2.07
2019-01-28T13:13:15.126Z,1.30
2019-01-28T13:15:45.330Z,2.30
2019-01-28T13:18:15.216Z,1.80
2019-01-28T13:20:45.743Z,1.50
2019-01-28T13:23:15.876Z,1.10
2019-01-28T13:25:46.259Z,1.73
2019-01-28T13:28:16.297Z,1.90
2019-01-28T13:30:46.324Z,1.50
2019-01-28T13:33:17.778Z,2.00
2019-01-28T13:35:47.933Z,1.53
2019-01-28T13:38:18.218Z,1.70
2019-01-28T13:40:48.797Z,2.10
2019-01-28T13:43:22.738Z,2.23
2019-01-28T13:45:52.734Z,1.87
2019-01-28T13:48:23.867Z,1.97
2019-01-28T13:50:53.774Z,1.47
2019-01-28T13:53:24.373Z,1.87
2019-01-28T13:55:54.500Z,1.73
2019-01-28T13:58:24.860Z,2.07
2019-01-28T14:00:55.539Z,2.00
2019-01-28T14:03:25.592Z,1.30
2019-01-28T14:05:55.830Z,1.70
2019-01-28T14:08:25.851Z,1.40
2019-01-28T14:10:56.030Z,2.20
2019-01-28T14:13:26.790Z,1.27
2019-01-28T14:15:56.741Z,1.97
2019-01-28T14:18:27.049Z,1.80
2019-01-28T14:21:01.294Z,1.90
2019-01-28T14:23:31.258Z,1.77
2019-01-28T14:26:01.321Z,1.40
2019-01-28T14:28:31.458Z,2.10
2019-01-28T14:31:01.674Z,2.17
2019-01-28T14:33:31.879Z,1.57
2019-01-28T14:36:02.203Z,1.53
2019-01-28T14:38:32.387Z,1.10
2019-01-28T14:41:02.819Z,1.62
2019-01-28T14:43:33.223Z,2.03
2019-01-28T14:46:03.540Z,1.22
2019-01-28T14:48:33.714Z,1.80
2019-01-28T14:51:03.819Z,1.50
2019-01-28T14:53:33.755Z,1.20
2019-01-28T14:56:03.863Z,1.67
2019-01-28T14:58:34.182Z,1.80
2019-01-28T15:01:04.231Z,1.40
2019-01-28T15:03:34.134Z,1.20
2019-01-28T15:06:04.789Z,1.75
2019-01-28T15:08:36.041Z,2.08
2019-01-28T15:11:06.746Z,2.37
2019-01-28T15:13:36.969Z,1.90
2019-01-28T15:16:09.210Z,1.62
2019-01-28T15:18:39.369Z,1.70
2019-01-28T15:21:09.901Z,1.47
2019-01-28T15:23:40.183Z,1.20
2019-01-28T15:26:10.353Z,1.32
2019-01-28T15:28:40.265Z,1.22
2019-01-28T15:31:10.408Z,1.85
2019-01-28T15:33:40.352Z,1.70
2019-01-28T15:36:10.652Z,1.35
2019-01-28T15:38:41.235Z,1.32
2019-01-28T15:41:11.687Z,1.00
2019-01-28T15:43:42.048Z,1.42
2019-01-28T15:46:11.947Z,1.60
2019-01-28T15:48:43.918Z,1.25
2019-01-28T15:51:14.025Z,1.70
2019-01-28T15:53:44.863Z,1.55
2019-01-28T15:56:15.157Z,1.40
2019-01-28T15:58:45.721Z,1.20
2019-01-28T16:01:16.026Z,1.60
2019-01-28T16:03:47.114Z,1.55
2019-01-28T16:06:16.999Z,2.00
2019-01-28T16:08:47.333Z,1.42
2019-01-28T16:11:18.423Z,2.33
2019-01-28T16:13:49.073Z,2.60
2019-01-28T16:16:19.481Z,1.32
2019-01-28T16:18:49.465Z,1.30
2019-01-28T16:21:19.376Z,1.62
2019-01-28T16:23:49.656Z,1.85
2019-01-28T16:30:07.499Z,1.80
2019-01-28T16:32:37.396Z,2.02
2019-01-28T16:35:07.877Z,2.00
2019-01-28T16:37:38.660Z,2.63
2019-01-28T16:40:11.697Z,1.87
2019-01-28T16:42:42.063Z,3.30
2019-01-28T16:45:13.803Z,2.25
2019-01-28T16:47:44.059Z,1.92
2019-01-28T16:50:26.520Z,3.22
2019-01-28T16:52:51.330Z,1.70
2019-01-28T16:55:21.308Z,1.65
2019-01-28T16:57:52.073Z,2.35
2019-01-28T17:00:31.576Z,2.20
2019-01-28T17:03:01.630Z,2.10
2019-01-28T17:05:32.212Z,1.80
2019-01-28T17:08:21.219Z,2.33
2019-01-28T17:10:51.427Z,2.95
2019-01-28T17:13:21.554Z,2.17
2019-01-28T17:15:51.683Z,2.83
2019-01-28T17:18:21.772Z,2.10
2019-01-28T17:20:52.656Z,2.10
2019-01-28T17:23:22.839Z,2.83
2019-01-28T17:25:53.081Z,1.92
2019-01-28T17:28:22.979Z,2.55
2019-01-28T17:30:53.404Z,1.70
2019-01-28T17:33:23.667Z,2.37
2019-01-28T17:35:56.980Z,1.98
2019-01-28T17:38:27.007Z,2.05
2019-01-28T17:40:57.227Z,1.50
2019-01-28T17:43:27.760Z,2.42
2019-01-28T17:45:57.693Z,1.73
2019-01-28T17:48:27.881Z,1.60
2019-01-28T17:50:58.045Z,1.10
2019-01-28T17:53:28.186Z,1.50
2019-01-28T17:55:58.743Z,1.80
2019-01-28T17:58:28.835Z,2.20
2019-01-28T18:00:59.658Z,1.73
2019-01-28T18:03:29.943Z,3.45
2019-01-28T18:06:00.008Z,2.52
2019-01-28T18:08:29.921Z,2.72
2019-01-28T18:10:59.953Z,1.47
2019-01-28T18:13:32.032Z,2.10
2019-01-28T18:16:01.923Z,2.08
2019-01-28T18:18:31.906Z,2.55
2019-01-28T18:21:01.937Z,2.00
2019-01-28T18:23:50.824Z,2.20
2019-01-28T18:26:20.840Z,2.67
2019-01-28T18:28:51.062Z,2.20
2019-01-28T18:31:21.035Z,2.55
2019-01-28T18:33:51.007Z,2.30
2019-01-28T18:36:21.422Z,2.10
2019-01-28T18:38:51.406Z,2.60
2019-01-28T18:41:21.338Z,2.12
2019-01-28T18:43:51.354Z,2.25
2019-01-28T18:46:21.347Z,2.60
2019-01-28T18:48:51.635Z,1.20
2019-01-28T18:51:21.646Z,2.65
2019-01-28T18:53:51.858Z,2.60
2019-01-28T18:56:22.026Z,3.02
2019-01-28T18:58:54.377Z,3.67
2019-01-28T19:01:25.992Z,3.17
2019-01-28T19:07:57.746Z,4.12
2019-01-28T19:10:46.573Z,4.20
2019-01-28T19:13:24.788Z,3.05
2019-01-28T19:16:10.027Z,4.65
2019-01-28T19:18:55.962Z,4.17
2019-01-28T19:21:32.004Z,3.70
2019-01-28T19:24:02.043Z,4.53
2019-01-28T19:26:32.004Z,4.65
2019-01-28T19:29:01.955Z,5.12
2019-01-28T19:31:32.223Z,4.10
2019-01-28T19:34:02.199Z,5.78
2019-01-28T19:36:32.334Z,2.92
2019-01-28T19:39:02.689Z,3.83
2019-01-28T19:41:32.849Z,4.65
2019-01-28T19:44:03.429Z,4.50
2019-01-28T19:46:33.420Z,2.98
2019-01-28T19:49:03.633Z,3.87
2019-01-28T19:51:33.895Z,3.80
2019-01-28T19:54:04.205Z,4.37
2019-01-28T19:56:34.435Z,3.05
2019-01-28T19:59:04.704Z,3.55
2019-01-28T20:01:34.867Z,4.80
2019-01-28T20:04:04.914Z,2.75
2019-01-28T20:06:35.065Z,3.60
2019-01-28T20:09:08.914Z,3.22
2019-01-28T20:11:39.758Z,3.52
2019-01-28T20:14:09.736Z,3.37
2019-01-28T20:16:39.994Z,4.28
2019-01-28T20:19:09.967Z,2.45
2019-01-28T20:21:40.795Z,2.55
2019-01-28T20:24:11.276Z,3.80
2019-01-28T20:26:41.458Z,3.20
2019-01-28T20:29:11.432Z,3.47
2019-01-28T20:31:41.336Z,3.15
2019-01-28T20:34:11.478Z,2.55
2019-01-28T20:36:41.378Z,2.77
2019-01-28T20:39:11.614Z,2.77
2019-01-28T20:41:41.924Z,3.05
2019-01-28T20:44:15.047Z,2.92
2019-01-28T20:46:45.140Z,2.08
2019-01-28T20:49:15.533Z,2.22
2019-01-28T20:51:45.937Z,2.13
2019-01-28T20:54:16.395Z,2.80
2019-01-28T20:56:46.388Z,2.30
2019-01-28T20:59:17.256Z,1.73
2019-01-28T21:01:47.255Z,2.90
2019-01-28T21:04:17.992Z,3.15
2019-01-28T21:06:48.364Z,2.65
2019-01-28T21:09:19.589Z,2.27
2019-01-28T21:11:49.639Z,3.98
2019-01-28T21:14:19.720Z,2.98
2019-01-28T21:16:49.913Z,3.60
2019-01-28T21:19:20.282Z,3.90
2019-01-28T21:21:50.883Z,3.12
2019-01-28T21:24:21.025Z,3.10
2019-01-28T21:26:51.207Z,2.40
2019-01-28T21:29:21.168Z,1.85
2019-01-28T21:31:51.465Z,3.27
2019-01-28T21:34:21.353Z,3.02
2019-01-28T21:37:00.405Z,2.70
2019-01-28T21:39:30.543Z,3.25
2019-01-28T21:42:00.509Z,3.83
2019-01-28T21:44:30.667Z,2.42
2019-01-28T21:47:01.117Z,2.90
2019-01-28T21:49:31.051Z,3.22
2019-01-28T21:52:01.203Z,3.00
2019-01-28T21:54:31.315Z,3.05
2019-01-28T21:57:01.664Z,2.40
2019-01-28T21:59:31.561Z,3.20
2019-01-28T22:02:01.943Z,1.60
2019-01-28T22:04:32.678Z,2.70
2019-01-28T22:07:02.944Z,3.20
2019-01-28T22:09:33.162Z,2.80
2019-01-28T22:12:03.737Z,3.20
2019-01-28T22:14:34.914Z,3.00
2019-01-28T22:17:05.055Z,3.30
2019-01-28T22:19:35.539Z,3.05
2019-01-28T22:22:07.104Z,4.25
2019-01-28T22:24:37.083Z,4.08
2019-01-28T22:27:07.314Z,3.47
2019-01-28T22:29:37.303Z,2.45
2019-01-28T22:32:07.776Z,3.62
2019-01-28T22:34:37.935Z,3.33
2019-01-28T22:37:08.093Z,3.85
2019-01-28T22:39:38.822Z,3.85
2019-01-28T22:42:09.830Z,3.83
2019-01-28T22:44:39.730Z,4.20
2019-01-28T22:47:09.788Z,4.05
2019-01-28T22:49:39.947Z,4.35
2019-01-28T22:52:10.000Z,4.10
2019-01-28T22:54:40.059Z,3.87
2019-01-28T22:57:10.893Z,3.60
2019-01-28T22:59:40.783Z,4.42
2019-01-28T23:02:10.835Z,4.80
2019-01-28T23:04:40.989Z,3.90
2019-01-28T23:07:10.891Z,4.28
2019-01-28T23:09:41.128Z,4.85
2019-01-28T23:12:11.405Z,3.83
2019-01-28T23:14:41.574Z,4.30
2019-01-28T23:17:11.768Z,4.00
2019-01-28T23:19:41.918Z,5.15
2019-01-28T23:22:16.391Z,3.80
2019-01-28T23:24:44.008Z,4.20
2019-01-28T23:27:14.047Z,4.70
2019-01-28T23:29:44.239Z,5.70
2019-01-28T23:32:14.342Z,4.95
2019-01-28T23:34:44.705Z,4.17
2019-01-28T23:37:14.609Z,4.08
2019-01-28T23:39:44.525Z,5.17
2019-01-28T23:42:14.738Z,4.62
2019-01-28T23:44:44.995Z,4.87
2019-01-28T23:47:14.966Z,5.35
2019-01-28T23:49:44.954Z,5.58
2019-01-28T23:52:14.851Z,4.90
2019-01-28T23:54:45.015Z,6.33
2019-01-28T23:57:14.915Z,5.58
2019-01-28T23:59:44.841Z,5.83
